Impacts TAF Board
For situational awareness. Not to be used for flight planning purposes.
IDs:

KCSG - Columbus Arpt, GA, US

Issued at 2346 UTC 05 Dec 2020
Updated at 0117 UTC 06 Dec 2020
Potential Impact None Slight Moderate High
Time0051Z 06/02Z 06/03Z 06/04Z 06/05Z 06/06Z 06/07Z 06/08Z 06/09Z 06/10Z 06/11Z 06/12Z 06/13Z 06/14Z>>
Type OBS PRVL PRVL PRVL PRVL PRVL PRVL PRVL PRVL PRVL PRVL PRVL PRVL PRVL
VIS 10 >6 >6 >6 >6 >6 >6 >6 >6 >6 >6 >6 >6 >6
CIG -- -- -- -- -- -- -- -- -- -- -- -- -- --
Cover CLR SCT SCT SCT SCT SCT SCT SCT SCT SCT SCT SCT SCT SCT
FltCat VFR VFR VFR VFR VFR VFR VFR VFR VFR VFR VFR VFR VFR VFR
WX -- -- -- -- -- -- -- -- -- -- -- -- -- --
WDir VRB 300 300 300 300 300 300 300 300 300 300 300 300 260
WSpd 0 3 3 3 3 3 3 3 3 3 3 3 3 3
WGst -- -- -- -- -- -- -- -- -- -- -- -- -- --
Raw TAF
KCSG 052346Z 0600/0624 30003KT P6SM SCT250
  FM061400 26003KT P6SM SCT150 SCT250
  FM062000 26005KT P6SM SCT060 BKN100


Raw METAR
KCSG 060051Z 00000KT 10SM CLR 09/04 A3009 RMK AO2 SLP188 T00940044
KCSG 052351Z 00000KT 10SM CLR 11/04 A3009 RMK AO2 SLP188 T01060044 10161 20100 51008
KCSG 052251Z 35004KT 10SM CLR 13/03 A3008 RMK AO2 SLP185 T01330028

METAR Board
Radar Display
Forecast Discussion
For situational awareness. Not to be used for flight planning purposes.